createdAt,value
2022-09-18T00:03:55.088Z,8.77
2022-09-18T00:08:58.107Z,8.72
2022-09-18T00:13:59.767Z,8.75
2022-09-18T00:19:01.565Z,8.79
2022-09-18T00:24:03.488Z,8.82
2022-09-18T00:29:05.187Z,8.81
2022-09-18T00:34:08.704Z,8.83
2022-09-18T00:39:10.364Z,8.86
2022-09-18T00:44:37.309Z,8.93
2022-09-18T00:49:51.268Z,8.93
2022-09-18T00:54:56.532Z,8.88
2022-09-18T00:59:58.495Z,8.91
2022-09-18T01:05:00.147Z,8.90
2022-09-18T01:10:12.383Z,8.83
2022-09-18T01:15:26.587Z,8.75
2022-09-18T01:21:04.953Z,8.68
2022-09-18T01:26:40.373Z,8.62
2022-09-18T01:31:51.129Z,8.51
2022-09-18T01:36:57.514Z,8.46
2022-09-18T01:41:59.342Z,8.41
2022-09-18T01:47:02.819Z,8.51
2022-09-18T01:52:23.354Z,8.53
2022-09-18T01:57:29.945Z,8.53
2022-09-18T02:02:42.830Z,8.53
2022-09-18T02:07:56.766Z,8.52
2022-09-18T02:12:58.411Z,8.58
2022-09-18T02:18:05.614Z,8.62
2022-09-18T02:23:12.826Z,8.67
2022-09-18T02:28:15.337Z,8.70
2022-09-18T02:33:31.130Z,8.67
2022-09-18T02:38:37.397Z,8.56
2022-09-18T02:43:59.023Z,8.58
2022-09-18T02:49:11.884Z,8.63
2022-09-18T02:54:40.263Z,8.64
2022-09-18T02:59:46.137Z,8.68
2022-09-18T03:04:49.857Z,8.75
2022-09-18T03:09:58.928Z,8.78
2022-09-18T03:15:00.662Z,8.78
2022-09-18T03:20:03.475Z,8.78
2022-09-18T03:25:05.852Z,8.72
2022-09-18T03:30:09.059Z,8.69
2022-09-18T03:35:11.918Z,8.66
2022-09-18T03:40:13.811Z,8.61
2022-09-18T03:45:16.024Z,8.53
2022-09-18T03:50:18.212Z,8.55
2022-09-18T03:55:20.051Z,8.52
2022-09-18T04:00:47.920Z,8.47
2022-09-18T04:05:59.904Z,8.48
2022-09-18T04:11:24.169Z,8.43
2022-09-18T04:16:25.969Z,8.40
2022-09-18T04:21:27.853Z,8.35
2022-09-18T04:26:29.864Z,8.39
2022-09-18T04:31:34.330Z,8.34
2022-09-18T04:36:40.677Z,8.28
2022-09-18T04:41:45.521Z,8.34
2022-09-18T04:46:48.513Z,8.29
2022-09-18T04:51:51.179Z,8.29
2022-09-18T04:56:52.923Z,8.24
2022-09-18T05:01:55.805Z,8.18
2022-09-18T05:06:57.543Z,8.18
2022-09-18T05:11:59.423Z,8.15
2022-09-18T05:17:01.910Z,8.14
2022-09-18T05:22:12.387Z,8.10
2022-09-18T05:27:18.168Z,8.18
2022-09-18T05:32:20.330Z,8.20
2022-09-18T05:37:22.360Z,8.20
2022-09-18T05:42:28.041Z,8.18
2022-09-18T05:47:35.195Z,8.28
2022-09-18T05:52:37.829Z,8.31
2022-09-18T05:57:41.285Z,8.27
2022-09-18T06:02:44.046Z,8.38
2022-09-18T06:07:48.232Z,8.46
2022-09-18T06:13:04.336Z,8.52
2022-09-18T06:18:06.883Z,8.62
2022-09-18T06:23:08.703Z,8.71
2022-09-18T06:28:20.383Z,8.86
2022-09-18T06:33:22.191Z,8.99
2022-09-18T06:38:23.845Z,9.10
2022-09-18T06:43:26.378Z,9.23
2022-09-18T06:48:48.582Z,9.33
2022-09-18T06:53:50.303Z,9.35
2022-09-18T06:58:53.381Z,9.46
2022-09-18T07:03:55.501Z,9.56
2022-09-18T07:09:00.420Z,9.71
2022-09-18T07:14:22.292Z,9.91
2022-09-18T07:19:26.160Z,10.06
2022-09-18T07:24:28.231Z,10.14
2022-09-18T07:29:29.886Z,10.28
2022-09-18T07:34:32.997Z,10.26
2022-09-18T07:39:34.976Z,10.32
2022-09-18T07:44:55.943Z,10.39
2022-09-18T07:49:58.728Z,10.43
2022-09-18T07:55:00.410Z,10.51
2022-09-18T08:00:08.737Z,10.55
2022-09-18T08:05:17.266Z,10.97
2022-09-18T08:10:27.246Z,11.16
2022-09-18T08:15:58.305Z,11.19
2022-09-18T08:21:18.747Z,11.30
2022-09-18T08:26:24.000Z,11.37
2022-09-18T08:31:27.702Z,11.44
2022-09-18T08:36:32.072Z,11.49
2022-09-18T08:42:14.708Z,11.48
2022-09-18T08:47:35.653Z,11.53
2022-09-18T08:52:40.909Z,11.63
2022-09-18T08:58:18.086Z,11.74
2022-09-18T09:03:49.182Z,11.77
2022-09-18T09:09:21.401Z,11.93
2022-09-18T09:15:00.185Z,12.16
2022-09-18T09:20:23.282Z,12.09
2022-09-18T09:25:38.594Z,11.96
2022-09-18T09:31:00.294Z,11.97
2022-09-18T09:36:27.358Z,11.95
2022-09-18T09:41:42.367Z,11.99
2022-09-18T09:46:54.097Z,12.13
2022-09-18T09:52:09.679Z,12.18
2022-09-18T09:57:19.192Z,12.19
2022-09-18T10:02:29.659Z,12.21
2022-09-18T10:07:39.740Z,12.27
2022-09-18T10:13:03.720Z,12.40
2022-09-18T10:18:11.464Z,12.41
2022-09-18T10:23:28.829Z,12.47
2022-09-18T10:28:34.039Z,12.76
2022-09-18T10:33:40.048Z,12.99
2022-09-18T10:38:47.971Z,12.95
2022-09-18T10:44:14.364Z,12.90
2022-09-18T10:49:33.598Z,12.19
2022-09-18T10:54:35.509Z,11.82
2022-09-18T10:59:41.608Z,11.76
2022-09-18T11:04:46.773Z,11.86
2022-09-18T11:09:49.406Z,12.04
2022-09-18T11:14:59.159Z,12.28
2022-09-18T11:20:01.603Z,12.47
2022-09-18T11:25:24.120Z,12.84
2022-09-18T11:30:32.093Z,13.24
2022-09-18T11:35:36.207Z,13.02
2022-09-18T11:40:46.001Z,12.94
2022-09-18T11:46:01.841Z,12.49
2022-09-18T11:51:05.412Z,9.89
2022-09-18T11:56:25.341Z,8.90
2022-09-18T12:01:34.543Z,8.53
2022-09-18T12:07:01.322Z,8.32
2022-09-18T12:12:13.225Z,7.93
2022-09-18T12:17:31.153Z,7.67
2022-09-18T12:22:41.644Z,7.63
2022-09-18T12:27:58.952Z,7.71
2022-09-18T12:33:13.491Z,8.13
2022-09-18T12:38:46.323Z,8.48
2022-09-18T12:44:00.120Z,8.95
2022-09-18T12:49:17.095Z,9.23
2022-09-18T12:54:25.030Z,9.98
2022-09-18T12:59:45.228Z,9.97
2022-09-18T13:04:49.902Z,10.26
2022-09-18T13:10:17.886Z,10.27
2022-09-18T13:15:28.291Z,10.36
2022-09-18T13:20:42.685Z,10.32
2022-09-18T13:25:44.303Z,10.22
2022-09-18T13:30:45.907Z,10.30
2022-09-18T13:35:56.992Z,10.76
2022-09-18T13:41:06.222Z,11.16
2022-09-18T13:46:08.332Z,11.49
2022-09-18T13:51:21.967Z,11.66
2022-09-18T13:56:23.625Z,11.19
2022-09-18T14:01:40.703Z,10.78
2022-09-18T14:06:44.002Z,10.65
2022-09-18T14:11:45.646Z,10.35
2022-09-18T14:16:48.647Z,9.85
2022-09-18T14:21:50.307Z,9.54
2022-09-18T14:27:00.224Z,9.43
2022-09-18T14:32:01.942Z,9.32
2022-09-18T14:37:18.834Z,9.30
2022-09-18T14:42:37.953Z,9.35
2022-09-18T14:47:47.016Z,9.20
2022-09-18T14:52:48.826Z,9.75
2022-09-18T14:57:59.040Z,10.37
2022-09-18T15:03:06.695Z,11.04
2022-09-18T15:08:17.470Z,11.43
2022-09-18T15:13:20.657Z,11.91
2022-09-18T15:18:23.894Z,11.58
2022-09-18T15:23:29.396Z,12.07
2022-09-18T15:28:33.143Z,12.26
2022-09-18T15:33:36.214Z,12.45
2022-09-18T15:38:42.428Z,12.66
2022-09-18T15:43:45.958Z,12.76
2022-09-18T15:48:48.144Z,12.47
2022-09-18T15:54:12.685Z,12.85
2022-09-18T15:59:22.540Z,13.03
2022-09-18T16:04:32.844Z,13.12
2022-09-18T16:09:42.601Z,12.72
2022-09-18T16:14:45.955Z,12.63
2022-09-18T16:19:47.581Z,12.68
2022-09-18T16:24:49.659Z,12.63
2022-09-18T16:29:51.370Z,12.68
2022-09-18T16:34:53.084Z,12.42
2022-09-18T16:39:54.777Z,12.25
2022-09-18T16:44:56.569Z,12.00
2022-09-18T16:49:58.228Z,11.78
2022-09-18T16:54:59.834Z,11.47
2022-09-18T17:00:04.909Z,11.02
2022-09-18T17:05:06.852Z,10.71
2022-09-18T17:10:08.756Z,10.44
2022-09-18T17:15:10.571Z,10.37
2022-09-18T17:20:14.043Z,10.24
2022-09-18T17:25:15.688Z,9.88
2022-09-18T17:30:17.465Z,9.57
2022-09-18T17:35:19.124Z,9.30
2022-09-18T17:40:20.799Z,9.20
2022-09-18T17:45:22.491Z,9.12
2022-09-18T17:50:24.756Z,9.09
2022-09-18T17:55:26.399Z,9.14
2022-09-18T18:00:28.215Z,9.12
2022-09-18T18:05:29.907Z,9.05
2022-09-18T18:10:31.607Z,9.04
2022-09-18T18:15:33.230Z,8.98
2022-09-18T18:20:34.846Z,9.04
2022-09-18T18:25:36.715Z,9.06
2022-09-18T18:30:38.965Z,9.07
2022-09-18T18:35:40.593Z,9.04
2022-09-18T18:40:42.389Z,9.01
2022-09-18T18:45:54.327Z,9.04
2022-09-18T18:50:59.422Z,9.05
2022-09-18T18:56:05.876Z,9.13
2022-09-18T19:01:09.033Z,9.18
2022-09-18T19:06:11.199Z,9.17
2022-09-18T19:11:15.075Z,9.18
2022-09-18T19:16:16.751Z,9.18
2022-09-18T19:21:20.495Z,9.22
2022-09-18T19:26:23.255Z,9.16
2022-09-18T19:31:25.629Z,9.20
2022-09-18T19:36:28.002Z,9.17
2022-09-18T19:41:48.065Z,9.20
2022-09-18T19:46:49.821Z,9.17
2022-09-18T19:51:51.489Z,9.14
2022-09-18T19:56:53.089Z,9.12
2022-09-18T20:01:55.334Z,9.14
2022-09-18T20:06:57.022Z,9.19
2022-09-18T20:11:58.778Z,9.24
2022-09-18T20:17:00.401Z,9.23
2022-09-18T20:22:02.694Z,9.25
2022-09-18T20:27:04.381Z,9.26
2022-09-18T20:32:06.399Z,9.25
2022-09-18T20:37:09.344Z,9.29
2022-09-18T20:42:10.974Z,9.30
2022-09-18T20:47:12.579Z,9.26
2022-09-18T20:52:14.706Z,9.32
2022-09-18T20:57:16.407Z,9.35
2022-09-18T21:02:18.121Z,9.33
2022-09-18T21:07:22.122Z,9.36
2022-09-18T21:12:23.719Z,9.33
2022-09-18T21:17:25.328Z,9.33
2022-09-18T21:22:28.378Z,9.30
2022-09-18T21:27:30.002Z,9.27
2022-09-18T21:32:31.658Z,9.28
2022-09-18T21:37:33.319Z,9.35
2022-09-18T21:42:35.601Z,9.33
2022-09-18T21:47:37.209Z,9.35
2022-09-18T21:52:40.811Z,9.30
2022-09-18T21:57:42.441Z,9.34
2022-09-18T22:02:44.042Z,9.29
2022-09-18T22:07:46.000Z,9.32
2022-09-18T22:12:47.731Z,9.33
2022-09-18T22:17:49.582Z,9.33
2022-09-18T22:22:51.207Z,9.33
2022-09-18T22:27:52.821Z,9.32
2022-09-18T22:32:54.790Z,9.32
2022-09-18T22:37:56.415Z,9.29
2022-09-18T22:42:58.067Z,9.28
2022-09-18T22:47:59.824Z,9.27
2022-09-18T22:53:01.498Z,9.26
2022-09-18T22:58:06.235Z,9.28
2022-09-18T23:03:08.117Z,9.30
2022-09-18T23:08:11.247Z,9.33
2022-09-18T23:13:12.913Z,9.37
2022-09-18T23:18:14.596Z,9.33
2022-09-18T23:23:16.789Z,9.35
2022-09-18T23:28:18.406Z,9.32
2022-09-18T23:33:20.016Z,9.19
2022-09-18T23:38:21.689Z,9.28
2022-09-18T23:43:23.317Z,9.28
2022-09-18T23:48:25.208Z,9.30
2022-09-18T23:53:26.940Z,9.38
2022-09-18T23:58:28.584Z,9.42
